Flight Track Log - Related Links

Times and Time Zones

All times are in EDT time to prevent confusion due to time zone crossing. See the BAW277 flight status page for this flight to view local times or setup timezone preferences in your user account.

Time Position Orientation Groundspeed Altitude Reporting Facility
EDT Latitude Longitude Course Direction KTS MPH feet Rate Location/Type
Tue 10:15:51 AM 51.4690 -0.3970 60° Northeast 207 238 1,500  Level FlightAware ADS-B
Tue 10:16:06 AM 51.4800 -0.3770 49° Northeast 214 246 1,900 1,200 Climbing FlightAware ADS-B
Tue 10:16:31 AM 51.4970 -0.3450 49° Northeast 242 278 2,300 800 Climbing FlightAware ADS-B
Tue 10:16:36 AM 51.5023 -0.3368 49° Northeast 240 276 2,300 1,500 Level FlightAware UK
Tue 10:16:51 AM 51.5141 -0.3160 47° Northeast 244 281 2,800 1,750 Climbing FlightAware ADS-B
Tue 10:17:00 AM 51.5217 -0.3012 51° Northeast 267 307 3,000 1,600 Climbing FlightAware ADS-B
Tue 10:17:06 AM 51.5261 -0.2912 55° Northeast 273 314 3,200 1,846 Climbing FlightAware ADS-B
Tue 10:17:13 AM 51.5303 -0.2785 62° Northeast 276 318 3,400 2,000 Climbing FlightAware ADS-B
Tue 10:17:24 AM 51.5351 -0.2571 70° East 278 320 3,800 1,862 Climbing FlightAware ADS-B
Tue 10:17:42 AM 51.5440 -0.2242 67° East 287 330 4,300 1,800 Climbing FlightAware ADS-B
Tue 10:17:54 AM 51.5555 -0.2061 44° Northeast 295 339 4,700 1,895 Climbing FlightAware ADS-B
Tue 10:18:01 AM 51.5652 -0.1983 27° Northeast 296 341 4,900 2,100 Climbing FlightAware ADS-B
Tue 10:18:14 AM 51.5820 -0.1894 18° North 300 345 5,400 1,714 Climbing FlightAware ADS-B
Tue 10:18:22 AM 51.5924 -0.1825 22° Northeast 304 350 5,500 1,000 Climbing FlightAware ADS-B
Tue 10:18:32 AM 51.6050 -0.1742 22° Northeast 313 360 5,700 1,200 Climbing FlightAware ADS-B
Tue 10:18:42 AM 51.6181 -0.1656 22° Northeast 320 368 5,900 818 Climbing FlightAware ADS-B
Tue 10:18:54 AM 51.6355 -0.1562 19° North 332 382 6,000  Climbing FlightAware ADS-B
Tue 10:19:07 AM 51.6554 -0.1468 16° North 341 392 5,900 -261 Descending FlightAware ADS-B
Tue 10:19:17 AM 51.6714 -0.1392 17° North 342 394 5,900  Level FlightAware ADS-B
Tue 10:19:33 AM 51.6958 -0.1296 14° North 341 392 5,900  Level FlightAware ADS-B
Tue 10:19:49 AM 51.7194 -0.1207 13° North 341 392 5,900  Level FlightAware ADS-B
Tue 10:19:57 AM 51.7329 -0.1149 15° North 341 392 5,900  Level FlightAware ADS-B
Tue 10:20:03 AM 51.7408 -0.1105 19° North 340 391 5,900  Level FlightAware ADS-B
Tue 10:20:07 AM 51.7465 -0.1059 26° Northeast 339 390 5,900  Level FlightAware ADS-B
Tue 10:20:11 AM 51.7519 -0.1006 31° Northeast 338 389 5,900  Level FlightAware ADS-B
Tue 10:20:14 AM 51.7558 -0.0961 36° Northeast 337 388 5,900 1,000 Level FlightAware ADS-B
Tue 10:20:17 AM 51.7596 -0.0893 48° Northeast 337 388 6,000 500 Climbing FlightAware ADS-B
Tue 10:20:26 AM 51.7685 -0.0722 50° Northeast 334 384 6,000 316 Level FlightAware ADS-B
Tue 10:20:36 AM 51.7758 -0.0503 62° Northeast 332 382 6,100 1,154 Climbing FlightAware ADS-B
Tue 10:20:52 AM 51.7863 -0.0145 65° Northeast 331 381 6,500 1,500 Climbing FlightAware ADS-B
Tue 10:20:56 AM 51.7885 -0.0053 69° East 330 380 6,600 2,100 Climbing FlightAware ADS-B
Tue 10:21:12 AM 51.7956 0.0324 73° East 330 380 7,200 2,250 Climbing FlightAware ADS-B
Tue 10:21:28 AM 51.8027 0.0679 72° East 331 381 7,800 2,129 Climbing FlightAware ADS-B
Tue 10:21:43 AM 51.8099 0.1033 72° East 334 384 8,300 1,818 Climbing FlightAware ADS-B
Tue 10:22:01 AM 51.8188 0.1458 71° East 336 387 8,800 1,765 Climbing FlightAware ADS-B
Tue 10:22:17 AM 51.8271 0.1843 71° East 342 394 9,300 1,833 Climbing FlightAware ADS-B
Tue 10:22:37 AM 51.8375 0.2328 71° East 344 396 9,900 1,765 Climbing FlightAware ADS-B
Tue 10:23:08 AM 51.8541 0.3091 71° East 353 406 10,800 1,645 Climbing FlightAware ADS-B
Tue 10:23:39 AM 51.8710 0.3872 71° East 360 414 11,600 1,574 Climbing FlightAware ADS-B
Tue 10:24:09 AM 51.8882 0.4672 71° East 369 425 12,400 1,672 Climbing FlightAware ADS-B
Tue 10:24:40 AM 51.9060 0.5458 70° East 376 433 13,300 1,672 Climbing FlightAware ADS-B
Tue 10:25:10 AM 51.9242 0.6260 70° East 383 441 14,100 1,574 Climbing FlightAware ADS-B
Tue 10:25:41 AM 51.9439 0.7103 69° East 392 451 14,900 1,524 Climbing FlightAware ADS-B
Tue 10:26:13 AM 51.9644 0.7989 69° East 403 464 15,700 1,219 Climbing FlightAware ADS-B
Tue 10:26:45 AM 51.9859 0.8943 70° East 419 482 16,200 818 Climbing FlightAware ADS-B
Tue 10:27:19 AM 52.0085 0.9940 70° East 435 501 16,600 938 Climbing FlightAware ADS-B
Tue 10:27:49 AM 52.0298 1.0912 70° East 447 514 17,200 1,300 Climbing FlightAware ADS-B
Tue 10:28:19 AM 52.0500 1.1875 71° East 454 522 17,900 1,355 Climbing FlightAware ADS-B
Tue 10:28:51 AM 52.0715 1.2919 71° East 461 531 18,600 1,385 Climbing FlightAware ADS-B
Tue 10:29:24 AM 52.0926 1.3983 72° East 467 537 19,400 1,083 Climbing FlightAware ADS-B
Tue 10:30:03 AM 52.1160 1.5280 74° East 480 552 19,900 938 Climbing FlightAware ADS-B (CYTZ)
Tue 10:30:28 AM 52.1236 1.6217 82° East 473 544 20,400 1,286 Climbing FlightAware ADS-B
Tue 10:30:31 AM 52.1245 1.6322 82° East 483 556 20,500 1,273 Climbing FlightAware ADS-B
Tue 10:31:01 AM 52.1323 1.7434 82° East 458 527 21,100 -194 Climbing FlightAware UK
Tue 10:31:02 AM 52.1230 1.6110 82° East 481 554 20,400 1,317 Descending FlightAware ADS-B
Tue 10:31:42 AM 52.1430 1.8880 83° East 495 570 22,000 1,944 Climbing FlightAware ADS-B
Tue 10:32:13 AM 52.1510 2.0110 83° East 472 543 22,700 1,500 Climbing FlightAware UK
Tue 10:32:22 AM 52.1530 2.0400 83° East 500 575 23,000 1,333 Climbing FlightAware ADS-B
Tue 10:33:16 AM 52.1660 2.2440 83° East 507 583 24,100 1,263 Climbing FlightAware ADS-B
Tue 10:33:19 AM 52.1669 2.2595 83° East 478 550 24,200 1,077 Climbing FlightAware UK
Tue 10:33:55 AM 52.1778 2.3976 83° East 484 557 24,800 947 Climbing FlightAware UK
Tue 10:33:57 AM 52.1770 2.3900 83° East 516 594 24,800 1,733 Level FlightAware ADS-B
Tue 10:34:40 AM 52.1900 2.5580 83° East 511 588 26,100 1,841 Climbing FlightAware ADS-B
Tue 10:35:25 AM 52.2020 2.7370 84° East 504 580 27,500 1,906 Climbing FlightAware ADS-B (CYTZ)
Tue 10:36:05 AM 52.2120 2.8790 83° East 494 568 28,800 1,694 Climbing FlightAware ADS-B
Tue 10:36:50 AM 52.2250 3.0440 83° East 489 563 29,900 1,341 Climbing FlightAware ADS-B
Tue 10:37:30 AM 52.2230 3.1930 83° East 482 555 30,700 1,171 Climbing FlightAware ADS-B
Tue 10:37:31 AM 52.2211 3.2051 83° East 464 534 30,700 419 Level FlightAware UK
Tue 10:38:13 AM 52.2126 3.3579 83° East 472 543 31,000 429 Climbing FlightAware UK
Tue 10:38:13 AM 52.2130 3.3500 83° East 489 563 31,000  Level FlightAware ADS-B
Tue 10:38:43 AM 52.2050 3.4689 83° East 470 541 31,000  Level FlightAware UK
Tue 10:39:11 AM 52.1980 3.5590 83° East 491 565 31,000  Level FlightAware ADS-B
Tue 10:39:51 AM 52.1870 3.7060 97° East 488 562 31,000  Level FlightAware ADS-B
Tue 10:40:29 AM 52.1760 3.8470 97° East 485 558 31,000 -73 Level FlightAware ADS-B
Tue 10:41:13 AM 52.1610 4.0140 97° East 470 541 30,900  Descending FlightAware UK
Tue 10:41:16 AM 52.1600 4.0190 97° East 479 551 31,000 136 Climbing FlightAware ADS-B
Tue 10:41:57 AM 52.1520 4.1080 98° East 476 548 31,000  Level FlightAware ADS-B
Tue 10:42:36 AM 52.1420 4.2210 98° East 476 548 31,000  Level FlightAware ADS-B
Tue 10:43:20 AM 52.1200 4.4540 99° East 475 547 31,000 -75 Level FlightAware ADS-B
Tue 10:43:56 AM 52.1080 4.5878 99° East 462 532 30,900  Descending FlightAware UK
Tue 10:44:04 AM 52.1060 4.6100 99° East 476 548 31,000 125 Climbing FlightAware ADS-B
Tue 10:44:44 AM 52.0920 4.7550 99° East 479 551 31,000  Level FlightAware ADS-B
Tue 10:45:06 AM 52.0850 4.8300 99° East 480 552 31,000  Level FlightAware ADS-B
Tue 10:45:56 AM 52.0644 5.0120 99° East 460 529 31,000  Level FlightAware UK
Tue 10:46:01 AM 52.0700 4.9830 99° East 481 554 31,000  Level FlightAware ADS-B
Tue 10:46:31 AM 52.0580 5.1010 99° East 484 557 31,000  Level FlightAware ADS-B
Tue 10:47:12 AM 52.0410 5.2810 99° East 487 560 31,000 -140 Level FlightAware ADS-B
Tue 10:47:14 AM 52.0365 5.2919 99° East 466 536 30,900  Descending FlightAware UK
Tue 10:47:52 AM 52.0270 5.4260 99° East 488 562 31,000 88 Climbing FlightAware ADS-B
Tue 10:48:22 AM 52.0170 5.5350 98° East 489 563 31,000  Level FlightAware ADS-B
Tue 10:49:06 AM 52.0010 5.6940 99° East 491 565 31,000  Level FlightAware ADS-B
Tue 10:49:50 AM 51.9850 5.8540 99° East 491 565 31,000  Level FlightAware ADS-B
Tue 10:50:22 AM 51.9730 5.9740 99° East 490 564 31,000  Level FlightAware ADS-B
Tue 10:51:12 AM 51.9540 6.1510 100° East 489 563 31,000  Level FlightAware ADS-B
Tue 10:51:52 AM 51.9390 6.2950 100° East 488 562 31,000  Level FlightAware ADS-B
Tue 10:52:38 AM 51.9210 6.4600 100° East 484 557 31,000  Level FlightAware ADS-B
Tue 10:53:16 AM 51.9060 6.5950 100° East 481 554 31,000  Level FlightAware ADS-B
Tue 10:53:58 AM 51.8890 6.7430 100° East 477 549 31,000  Level FlightAware ADS-B
Tue 10:54:42 AM 51.8720 6.9000 100° East 473 544 31,000  Level FlightAware ADS-B
Tue 10:56:22 AM 51.8450 7.1290 101° East 472 543 31,000  Level FlightAware ADS-B
Tue 10:56:55 AM 51.8230 7.3190 101° East 469 540 31,000  Level FlightAware ADS-B
Tue 10:57:38 AM 51.8010 7.5050 101° East 469 540 31,000  Level FlightAware ADS-B
Tue 10:58:26 AM 51.7820 7.6700 100° East 468 539 31,000  Level FlightAware ADS-B
Tue 10:59:04 AM 51.7670 7.7960 101° East 467 537 31,000  Level FlightAware ADS-B
Tue 10:59:50 AM 51.7480 7.9530 101° East 466 536 31,000  Level FlightAware ADS-B
Tue 11:00:41 AM 51.7290 8.1100 101° East 465 535 31,000  Level FlightAware ADS-B
Tue 11:01:27 AM 51.7070 8.2870 101° East 464 534 31,000  Level FlightAware ADS-B
Tue 11:02:09 AM 51.6890 8.4320 101° East 464 534 31,000  Level FlightAware ADS-B
Tue 11:02:51 AM 51.6700 8.5750 102° East 464 534 31,000  Level FlightAware ADS-B
Tue 11:03:31 AM 51.6530 8.7130 101° East 465 535 31,000  Level FlightAware ADS-B
Tue 11:04:15 AM 51.6330 8.8590 102° East 464 534 31,000  Level FlightAware ADS-B
Tue 11:04:59 AM 51.6150 8.9970 102° East 464 534 31,000  Level FlightAware ADS-B
Tue 11:05:39 AM 51.5960 9.1420 102° East 465 535 31,000  Level FlightAware ADS-B
Tue 11:06:20 AM 51.5780 9.2810 102° East 466 536 31,000  Level FlightAware ADS-B
Tue 11:07:02 AM 51.5580 9.4230 103° East 466 536 31,000  Level FlightAware ADS-B
Tue 11:07:44 AM 51.5400 9.5560 102° East 468 539 31,000  Level FlightAware ADS-B
Tue 11:08:28 AM 51.5180 9.7150 102° East 470 541 31,000  Level FlightAware ADS-B
Tue 11:09:12 AM 51.4970 9.8620 103° East 475 547 31,000  Level FlightAware ADS-B
Tue 11:09:50 AM 51.4790 9.9930 102° East 479 551 31,000  Level FlightAware ADS-B
Tue 11:10:46 AM 51.4500 10.1910 103° East 483 556 31,000  Level FlightAware ADS-B
Tue 11:11:45 AM 51.4230 10.3830 103° East 484 557 31,000  Level FlightAware ADS-B
Tue 11:12:22 AM 51.4020 10.5240 103° East 485 558 31,000  Level FlightAware ADS-B
Tue 11:13:08 AM 51.3780 10.6850 103° East 486 559 31,000  Level FlightAware ADS-B
Tue 11:13:54 AM 51.3550 10.8450 103° East 485 558 31,000  Level FlightAware ADS-B
Tue 11:14:30 AM 51.3370 10.9640 104° East 481 554 31,000  Level FlightAware ADS-B
Tue 11:15:14 AM 51.3150 11.1200 103° East 480 552 31,000  Level FlightAware ADS-B
Tue 11:15:54 AM 51.2940 11.2620 103° East 481 554 31,000  Level FlightAware ADS-B
Tue 11:16:40 AM 51.2710 11.4170 103° East 479 551 31,000  Level FlightAware ADS-B
Tue 11:17:20 AM 51.2490 11.5570 104° East 477 549 31,000  Level FlightAware ADS-B
Tue 11:18:05 AM 51.2250 11.7110 104° East 478 550 31,000  Level FlightAware ADS-B
Tue 11:18:45 AM 51.2040 11.8470 104° East 478 550 31,000  Level FlightAware ADS-B
Tue 11:19:25 AM 51.1840 11.9770 104° East 478 550 31,000  Level FlightAware ADS-B
Tue 11:20:05 AM 51.1610 12.1200 104° East 477 549 31,000  Level FlightAware ADS-B
Tue 11:21:06 AM 51.1320 12.2970 105° East 476 548 31,000  Level FlightAware ADS-B
Tue 11:21:46 AM 51.1050 12.4600 105° East 477 549 31,000  Level FlightAware ADS-B
Tue 11:22:31 AM 51.0790 12.6140 105° East 479 551 31,000  Level FlightAware ADS-B
Tue 11:23:13 AM 51.0560 12.7540 105° East 479 551 31,000  Level FlightAware ADS-B
Tue 11:23:51 AM 51.0320 12.8930 105° East 478 550 31,000  Level FlightAware ADS-B
Tue 11:24:37 AM 51.0060 13.0460 105° East 478 550 31,000  Level FlightAware ADS-B
Tue 11:25:17 AM 50.9830 13.1790 105° East 481 554 31,000  Level FlightAware ADS-B
Tue 11:26:18 AM 50.9520 13.3630 105° East 481 554 31,000  Level FlightAware ADS-B
Tue 11:26:57 AM 50.9240 13.5220 106° East 483 556 31,000  Level FlightAware ADS-B
Tue 11:27:32 AM 50.9040 13.6380 105° East 483 556 31,000  Level FlightAware ADS-B
Tue 11:28:23 AM 50.8730 13.8120 106° East 484 557 31,000  Level FlightAware ADS-B
Tue 11:29:02 AM 50.8490 13.9450 106° East 485 558 31,000  Level FlightAware ADS-B
Tue 11:29:38 AM 50.8150 14.0520 117° Southeast 479 551 31,000  Level FlightAware ADS-B
Tue 11:30:26 AM 50.7460 14.2030 126° Southeast 483 556 31,000  Level FlightAware ADS-B
Tue 11:31:07 AM 50.6920 14.3160 127° Southeast 481 554 31,000  Level FlightAware ADS-B
Tue 11:31:39 AM 50.6490 14.4080 126° Southeast 480 552 31,000  Level FlightAware ADS-B
Tue 11:32:16 AM 50.6120 14.4870 126° Southeast 481 554 31,000  Level FlightAware ADS-B
Tue 11:32:59 AM 50.5400 14.6240 130° Southeast 478 550 31,000  Level FlightAware ADS-B
Tue 11:33:42 AM 50.4730 14.7290 135° Southeast 477 549 31,000  Level FlightAware ADS-B
Tue 11:34:25 AM 50.4070 14.8310 135° Southeast 475 547 31,000  Level FlightAware ADS-B
Tue 11:35:02 AM 50.3460 14.9220 136° Southeast 475 547 31,000  Level FlightAware ADS-B
Tue 11:36:01 AM 50.2550 15.0640 135° Southeast 475 547 31,000  Level FlightAware ADS-B
Tue 11:36:46 AM 50.1890 15.1750 133° Southeast 476 548 31,000  Level FlightAware ADS-B
Tue 11:37:26 AM 50.1440 15.2960 120° Southeast 477 549 31,000  Level FlightAware ADS-B
Tue 11:38:06 AM 50.1020 15.4160 119° Southeast 478 550 31,000  Level FlightAware ADS-B
Tue 11:38:51 AM 50.0590 15.5480 117° Southeast 478 550 31,000  Level FlightAware ADS-B
Tue 11:39:31 AM 50.0350 15.6870 105° East 479 551 31,000  Level FlightAware ADS-B
Tue 11:40:27 AM 50.0030 15.8680 105° East 477 549 31,000  Level FlightAware ADS-B
Tue 11:41:09 AM 49.9770 16.0100 106° East 477 549 31,000  Level FlightAware ADS-B
Tue 11:41:51 AM 49.9520 16.1440 106° East 477 549 31,000  Level FlightAware ADS-B
Tue 11:42:35 AM 49.9240 16.2920 106° East 477 549 31,000  Level FlightAware ADS-B
Tue 11:43:15 AM 49.8810 16.4060 120° Southeast 475 547 31,000  Level FlightAware ADS-B
Tue 11:43:59 AM 49.8040 16.4960 143° Southeast 473 544 31,000  Level FlightAware ADS-B
Tue 11:44:39 AM 49.7270 16.5590 152° Southeast 473 544 31,000  Level FlightAware ADS-B
Tue 11:45:15 AM 49.6540 16.6180 152° Southeast 475 547 31,000  Level FlightAware ADS-B
Tue 11:46:05 AM 49.5680 16.7240 141° Southeast 480 552 31,000  Level FlightAware ADS-B (EGOD)
Tue 11:46:44 AM 49.5260 16.7890 135° Southeast 481 554 31,000  Level FlightAware ADS-B (EGOD)
Tue 11:47:30 AM 49.4750 16.9050 124° Southeast 482 555 31,000  Level FlightAware ADS-B (EGOD)
Tue 11:48:12 AM 49.4230 17.0900 113° Southeast 482 555 31,000  Level FlightAware ADS-B (EGOD)
Tue 11:48:52 AM 49.3880 17.2160 113° Southeast 483 556 31,000  Level FlightAware ADS-B (EGOD)
Tue 11:49:32 AM 49.3520 17.3420 114° Southeast 482 555 31,000  Level FlightAware ADS-B (EGOD)
Tue 11:50:16 AM 49.3140 17.4760 113° Southeast 484 557 31,000  Level FlightAware ADS-B (EGOD)
Tue 11:50:59 AM 49.2740 17.6150 114° Southeast 485 558 31,000  Level FlightAware ADS-B (EGOD)
Tue 11:51:41 AM 49.2340 17.7450 115° Southeast 487 560 31,000  Level FlightAware ADS-B (EGOD)
Tue 11:52:23 AM 49.1880 17.8720 119° Southeast 488 562 31,000  Level FlightAware ADS-B (EGOD)
Tue 11:53:03 AM 49.1470 17.9940 117° Southeast 488 562 31,000  Level FlightAware ADS-B (EGOD)
Tue 11:53:49 AM 49.0980 18.1340 118° Southeast 489 563 31,000 628 Level FlightAware ADS-B (EGOD)
Tue 11:54:29 AM 49.0540 18.2570 119° Southeast 484 557 31,900 1,325 Climbing FlightAware ADS-B (EGOD)
Tue 11:55:06 AM 49.0160 18.3650 118° Southeast 481 554 32,700 776 Climbing FlightAware ADS-B (EGOD)
Tue 11:55:54 AM 48.9650 18.5050 119° Southeast 483 556 33,000 205 Climbing FlightAware ADS-B (EGOD)
Tue 11:56:34 AM 48.9210 18.6270 119° Southeast 483 556 33,000  Level FlightAware ADS-B (EGOD)
Tue 11:57:18 AM 48.8740 18.7570 119° Southeast 480 552 33,000  Level FlightAware ADS-B (EGOD)
Tue 11:57:59 AM 48.8310 18.8750 119° Southeast 478 550 33,000  Level FlightAware ADS-B (EGOD)
Tue 11:58:37 AM 48.7890 18.9890 119° Southeast 478 550 33,000  Level FlightAware ADS-B (EGOD)
Tue 11:59:23 AM 48.7400 19.1230 119° Southeast 477 549 33,000  Level FlightAware ADS-B (EGOD)
Tue 12:00:03 PM 48.6970 19.2370 120° Southeast 478 550 33,000  Level FlightAware ADS-B (EGOD)
Tue 12:01:01 PM 48.6400 19.3940 119° Southeast 478 550 33,000  Level FlightAware ADS-B
Tue 12:01:39 PM 48.5930 19.5200 119° Southeast 480 552 33,000  Level FlightAware ADS-B
Tue 12:02:25 PM 48.5410 19.6530 121° Southeast 480 552 33,000  Level FlightAware ADS-B
Tue 12:03:05 PM 48.4970 19.7690 120° Southeast 480 552 33,000  Level FlightAware ADS-B
Tue 12:03:49 PM 48.4490 19.8970 119° Southeast 481 554 33,000  Level FlightAware ADS-B
Tue 12:04:29 PM 48.4050 20.0100 120° Southeast 481 554 33,000  Level FlightAware ADS-B
Tue 12:05:25 PM 48.3420 20.1750 120° Southeast 482 555 33,000  Level FlightAware ADS-B
Tue 12:05:55 PM 48.3160 20.2450 119° Southeast 482 555 33,000  Level FlightAware ADS-B (EGOD)
Tue 12:06:39 PM 48.2580 20.3880 121° Southeast 482 555 33,000  Level FlightAware ADS-B (EGOD)
Tue 12:07:17 PM 48.2120 20.4960 123° Southeast 484 557 33,000  Level FlightAware ADS-B (EGOD)
Tue 12:07:59 PM 48.1620 20.6150 122° Southeast 485 558 33,000  Level FlightAware ADS-B (EGOD)
Tue 12:08:55 PM 48.0980 20.7680 122° Southeast 485 558 33,000  Level FlightAware ADS-B (EGOD)
Tue 12:09:39 PM 48.0420 20.9010 122° Southeast 487 560 33,000  Level FlightAware ADS-B (EGOD)
Tue 12:11:06 PM 47.9390 21.1420 122° Southeast 487 560 33,000  Level FlightAware ADS-B (EGOD)
Tue 12:11:46 PM 47.8910 21.2520 123° Southeast 488 562 33,000  Level FlightAware ADS-B
Tue 12:12:27 PM 47.8460 21.3530 124° Southeast 488 562 33,000  Level FlightAware ADS-B
Tue 12:13:05 PM 47.7960 21.4660 123° Southeast 490 564 33,000  Level FlightAware ADS-B
Tue 12:13:50 PM 47.7390 21.5980 123° Southeast 490 564 33,000  Level FlightAware ADS-B
Tue 12:14:27 PM 47.6950 21.6990 123° Southeast 489 563 33,000  Level FlightAware ADS-B
Tue 12:15:10 PM 47.6380 21.8210 125° Southeast 491 565 33,000  Level FlightAware ADS-B
Tue 12:15:56 PM 47.5850 21.9260 127° Southeast 491 565 33,000  Level FlightAware ADS-B
Tue 12:16:39 PM 47.5140 22.0690 126° Southeast 490 564 33,000  Level FlightAware ADS-B
Tue 12:17:15 PM 47.4660 22.1630 127° Southeast 491 565 33,000  Level FlightAware ADS-B
Tue 12:18:05 PM 47.3980 22.2970 127° Southeast 490 564 33,000  Level FlightAware ADS-B
Tue 12:18:41 PM 47.3530 22.3860 127° Southeast 491 565 33,000  Level FlightAware ADS-B
Tue 12:19:27 PM 47.2890 22.5140 126° Southeast 491 565 33,000  Level FlightAware ADS-B
Tue 12:20:06 PM 47.2350 22.6210 127° Southeast 491 565 33,000  Level FlightAware ADS-B
Tue 12:21:06 PM 47.1770 22.7330 127° Southeast 492 566 33,000  Level FlightAware ADS-B
Tue 12:21:47 PM 47.1100 22.8640 127° Southeast 491 565 33,000  Level FlightAware ADS-B
Tue 12:22:30 PM 47.0520 22.9790 126° Southeast 491 565 33,000  Level FlightAware ADS-B
Tue 12:23:12 PM 46.9930 23.0930 127° Southeast 491 565 33,000  Level FlightAware ADS-B
Tue 12:23:48 PM 46.9420 23.1900 128° Southeast 490 564 33,000  Level FlightAware ADS-B
Tue 12:24:45 PM 46.8960 23.2790 127° Southeast 489 563 33,000  Level FlightAware ADS-B
Tue 12:25:45 PM 46.7880 23.4810 128° Southeast 490 564 33,000  Level FlightAware ADS-B
Tue 12:26:24 PM 46.7270 23.5990 127° Southeast 490 564 33,000  Level FlightAware ADS-B
Tue 12:27:11 PM 46.6540 23.7340 128° Southeast 489 563 33,000  Level FlightAware ADS-B
Tue 12:27:47 PM 46.6100 23.8170 128° Southeast 489 563 33,000  Level FlightAware ADS-B
Tue 12:28:47 PM 46.5210 23.9830 128° Southeast 488 562 33,000  Level FlightAware ADS-B
Tue 12:29:27 PM 46.4660 24.0860 128° Southeast 487 560 33,000  Level FlightAware ADS-B
Tue 12:30:13 PM 46.4110 24.1860 129° Southeast 487 560 33,000  Level FlightAware ADS-B
Tue 12:31:03 PM 46.3520 24.2970 128° Southeast 488 562 33,000  Level FlightAware ADS-B
Tue 12:31:43 PM 46.2760 24.4380 128° Southeast 487 560 33,000  Level FlightAware ADS-B
Tue 12:32:26 PM 46.2120 24.5560 128° Southeast 488 562 33,000  Level FlightAware ADS-B
Tue 12:33:08 PM 46.1570 24.6560 128° Southeast 487 560 33,000  Level FlightAware ADS-B
Tue 12:33:52 PM 46.0940 24.7710 128° Southeast 487 560 33,000  Level FlightAware ADS-B
Tue 12:34:30 PM 46.0490 24.8550 128° Southeast 487 560 33,000  Level FlightAware ADS-B
Tue 12:35:17 PM 45.9850 24.9720 128° Southeast 487 560 33,000  Level FlightAware ADS-B
Tue 12:36:42 PM 45.8760 25.1690 128° Southeast 487 560 33,000  Level FlightAware ADS-B
Tue 12:37:34 PM 45.8570 25.2020 130° Southeast 485 558 33,000  Level FlightAware ADS-B
Tue 12:38:14 PM 45.7330 25.4250 128° Southeast 486 559 33,000  Level FlightAware ADS-B
Tue 12:38:48 PM 45.6820 25.5120 130° Southeast 486 559 33,000  Level FlightAware ADS-B
Tue 12:39:25 PM 45.6300 25.6030 129° Southeast 486 559 33,000  Level FlightAware ADS-B
Tue 12:40:24 PM 45.5480 25.7450 129° Southeast 485 558 33,000  Level FlightAware ADS-B
Tue 12:41:04 PM 45.4910 25.8460 129° Southeast 483 556 33,000  Level FlightAware ADS-B
Tue 12:41:46 PM 45.4300 25.9490 130° Southeast 484 557 33,000  Level FlightAware ADS-B
Tue 12:42:26 PM 45.3730 26.0500 129° Southeast 485 558 33,000  Level FlightAware ADS-B
Tue 12:43:08 PM 45.3140 26.1510 130° Southeast 482 555 33,000  Level FlightAware ADS-B
Tue 12:43:49 PM 45.2560 26.2520 129° Southeast 483 556 33,000  Level FlightAware ADS-B
Tue 12:44:37 PM 45.1880 26.3690 129° Southeast 485 558 33,000  Level FlightAware ADS-B
Tue 12:45:32 PM 45.1080 26.5060 130° Southeast 484 557 33,000  Level FlightAware ADS-B
Tue 12:46:15 PM 45.0480 26.6060 130° Southeast 485 558 33,000  Level FlightAware ADS-B
Tue 12:46:56 PM 44.9880 26.7080 130° Southeast 486 559 33,000  Level FlightAware ADS-B
Tue 12:47:37 PM 44.9300 26.8050 130° Southeast 486 559 33,000  Level FlightAware ADS-B
Tue 12:48:18 PM 44.8770 26.8950 130° Southeast 487 560 33,000  Level FlightAware ADS-B
Tue 12:49:02 PM 44.8060 27.0140 130° Southeast 487 560 33,000  Level FlightAware ADS-B
Tue 12:49:45 PM 44.7400 27.1230 130° Southeast 486 559 33,000  Level FlightAware ADS-B
Tue 12:50:23 PM 44.6840 27.2100 132° Southeast 487 560 33,000  Level FlightAware ADS-B
Tue 12:51:05 PM 44.6220 27.3060 132° Southeast 486 559 33,000  Level FlightAware ADS-B
Tue 12:51:46 PM 44.5600 27.4050 131° Southeast 486 559 33,000  Level FlightAware ADS-B
Tue 12:52:32 PM 44.4940 27.5070 132° Southeast 485 558 33,000  Level FlightAware ADS-B
Tue 12:53:09 PM 44.4370 27.5960 132° Southeast 485 558 33,000  Level FlightAware ADS-B
Tue 12:53:52 PM 44.3700 27.6980 133° Southeast 486 559 33,000  Level FlightAware ADS-B
Tue 12:54:33 PM 44.3070 27.7930 133° Southeast 487 560 33,000  Level FlightAware ADS-B
Tue 12:55:02 PM 44.2670 27.8550 132° Southeast 487 560 33,000  Level FlightAware ADS-B
Tue 12:56:02 PM 44.1860 27.9780 133° Southeast 486 559 33,000  Level FlightAware ADS-B
Tue 12:56:28 PM 44.1330 28.0580 133° Southeast 487 560 33,000  Level FlightAware ADS-B
Tue 12:57:09 PM 44.0710 28.1530 132° Southeast 487 560 33,000  Level FlightAware ADS-B
Tue 12:57:51 PM 44.0040 28.2520 133° Southeast 486 559 33,000  Level FlightAware ADS-B
Tue 12:58:33 PM 43.9420 28.3460 132° Southeast 483 556 33,000  Level FlightAware ADS-B
Tue 12:59:14 PM 43.8800 28.4390 133° Southeast 481 554 33,000  Level FlightAware ADS-B
Tue 12:59:55 PM 43.8190 28.5290 133° Southeast 479 551 33,000  Level FlightAware ADS-B
Tue 01:00:42 PM 43.7480 28.6360 133° Southeast 476 548 33,000  Level FlightAware ADS-B
Tue 01:01:38 PM 43.6700 28.7510 133° Southeast 472 543 33,000  Level FlightAware ADS-B
Tue 01:02:19 PM 43.6060 28.8430 134° Southeast 471 542 33,000  Level FlightAware ADS-B
Tue 01:02:57 PM 43.5580 28.9140 133° Southeast 471 542 33,000  Level FlightAware ADS-B
Tue 01:03:44 PM 43.4770 29.0330 133° Southeast 470 541 33,000  Level FlightAware ADS-B
Tue 01:04:23 PM 43.4280 29.1060 133° Southeast 470 541 33,000  Level FlightAware ADS-B
Tue 01:05:04 PM 43.3560 29.2100 134° Southeast 471 542 33,000  Level FlightAware ADS-B
Tue 01:07:00 PM 43.2911 29.5116 106° East  Level Estimated
Tue 01:07:22 PM 43.1590 29.4940 106° East 473 544 33,000  Level FlightAware ADS-B
Tue 01:08:17 PM 43.0660 29.6260 134° Southeast 473 544 33,000  Level FlightAware ADS-B
Tue 01:09:00 PM 42.9990 29.7230 133° Southeast 33,000  Level FlightAware ADS-B
Tue 01:09:48 PM 42.9270 29.8250 134° Southeast 468 539 33,000  Level FlightAware ADS-B
Tue 01:10:43 PM 42.8430 29.9460 133° Southeast 471 542 33,000  Level FlightAware ADS-B
Tue 01:11:56 PM 42.7890 30.0220 134° Southeast 471 542 33,000  Level FlightAware ADS-B
Tue 01:12:43 PM 42.6570 30.2060 134° Southeast 482 555 33,000  Level FlightAware ADS-B
Tue 01:13:23 PM 42.5990 30.3030 129° Southeast 478 550 33,000  Level FlightAware ADS-B
Tue 01:14:03 PM 42.5540 30.4060 121° Southeast 472 543 33,000  Level FlightAware ADS-B
Tue 01:14:48 PM 42.5060 30.5200 120° Southeast 474 545 33,000  Level FlightAware ADS-B
Tue 01:15:23 PM 42.4660 30.6140 120° Southeast 478 550 33,000  Level FlightAware ADS-B
Tue 01:16:08 PM 42.4200 30.7230 120° Southeast 479 551 33,000  Level FlightAware ADS-B
Tue 01:16:48 PM 42.3720 30.8320 121° Southeast 482 555 33,000  Level FlightAware ADS-B
Tue 01:17:28 PM 42.3280 30.9340 120° Southeast 483 556 33,000  Level FlightAware ADS-B
Tue 01:18:18 PM 42.2690 31.0720 120° Southeast 484 557 33,000  Level FlightAware ADS-B
Tue 01:18:58 PM 42.2250 31.1710 121° Southeast 483 556 33,000  Level FlightAware ADS-B
Tue 01:19:43 PM 42.1740 31.2910 120° Southeast 484 557 33,000  Level FlightAware ADS-B
Tue 01:20:18 PM 42.1360 31.3760 121° Southeast 483 556 33,000  Level FlightAware ADS-B
Tue 01:21:38 PM 42.0440 31.5830 121° Southeast 483 556 33,000  Level FlightAware ADS-B
Tue 01:22:18 PM 42.0000 31.6840 120° Southeast 482 555 33,000  Level FlightAware ADS-B
Tue 01:23:07 PM 41.9530 31.7920 120° Southeast 482 555 33,000  Level FlightAware ADS-B
Tue 01:23:43 PM 41.9070 31.8960 121° Southeast 482 555 33,000  Level FlightAware ADS-B
Tue 01:24:31 PM 41.8610 32.0020 120° Southeast 482 555 33,000  Level FlightAware ADS-B
Tue 01:25:06 PM 41.8280 32.0790 120° Southeast 482 555 33,000  Level FlightAware ADS-B
Tue 01:25:45 PM 41.7910 32.1650 120° Southeast 482 555 33,000  Level FlightAware ADS-B
Tue 01:26:36 PM 41.7430 32.2770 120° Southeast 482 555 33,000  Level FlightAware ADS-B
Tue 01:27:12 PM 41.7090 32.3560 120° Southeast 482 555 33,000  Level FlightAware ADS-B
Tue 01:28:01 PM 41.6620 32.4640 120° Southeast 482 555 33,000  Level FlightAware ADS-B
Tue 01:28:35 PM 41.6300 32.5380 120° Southeast 482 555 33,000  Level FlightAware ADS-B
Tue 01:29:23 PM 41.5850 32.6440 120° Southeast 482 555 33,000  Level FlightAware ADS-B
Tue 01:29:59 PM 41.5500 32.7230 121° Southeast 482 555 33,000  Level FlightAware ADS-B
Tue 01:30:45 PM 41.5070 32.8240 120° Southeast 482 555 33,000  Level FlightAware ADS-B
Tue 01:31:22 PM 41.4720 32.9050 120° Southeast 482 555 33,000  Level FlightAware ADS-B
Tue 01:32:08 PM 41.4280 33.0050 120° Southeast 482 555 33,000  Level FlightAware ADS-B
Tue 01:32:32 PM 41.4050 33.0580 120° Southeast 482 555 33,000  Level FlightAware ADS-B
Tue 01:34:14 PM 41.2340 33.5320 116° Southeast 472 543 33,000  Level FlightAware ADS-B
Tue 01:34:57 PM 41.1970 33.6240 118° Southeast 471 542 33,000  Level FlightAware ADS-B
Tue 01:35:49 PM 41.1540 33.7340 117° Southeast 471 542 33,000  Level FlightAware ADS-B
Tue 01:36:26 PM 41.1220 33.8150 118° Southeast 471 542 33,000 22 Level FlightAware ADS-B
Tue 01:39:00 PM 41.0253 34.1970 108° East  Level Estimated
Tue 01:40:00 PM 40.9873 34.3455 109° East  Level Estimated
Tue 01:41:00 PM 40.9490 34.4939 109° East  Level Estimated
Tue 01:42:00 PM 40.9106 34.6421 109° East  Level Estimated
Tue 01:43:00 PM 40.8720 34.7901 109° East  Level Estimated
Tue 01:44:00 PM 40.8333 34.9380 109° East  Level Estimated
Tue 01:45:00 PM 40.7943 35.0856 109° East  Level Estimated
Tue 01:46:00 PM 40.7551 35.2331 109° East  Level Estimated
Tue 01:47:00 PM 40.7158 35.3804 109° East  Level Estimated
Tue 01:48:00 PM 40.6763 35.5276 109° East  Level Estimated
Tue 01:49:00 PM 40.6365 35.6746 110° East  Level Estimated
Tue 01:50:00 PM 40.5966 35.8214 110° East  Level Estimated
Tue 01:51:00 PM 40.5565 35.9680 110° East  Level Estimated
Tue 01:52:00 PM 40.5163 36.1144 110° East  Level Estimated
Tue 01:53:00 PM 40.4758 36.2607 110° East  Level Estimated
Tue 01:54:00 PM 40.4351 36.4068 110° East  Level Estimated
Tue 01:55:00 PM 40.3943 36.5527 110° East  Level Estimated
Tue 01:56:00 PM 40.3533 36.6984 110° East  Level Estimated
Tue 01:57:00 PM 40.3121 36.8440 110° East  Level Estimated
Tue 01:58:00 PM 40.2707 36.9894 110° East  Level Estimated
Tue 01:59:00 PM 40.2292 37.1346 111° Southeast  Level Estimated
Tue 02:00:00 PM 40.1874 37.2796 111° Southeast  Level Estimated
Tue 02:01:00 PM 40.1455 37.4245 111° Southeast  Level Estimated
Tue 02:02:00 PM 40.1034 37.5691 111° Southeast  Level Estimated
Tue 02:03:00 PM 40.0611 37.7136 111° Southeast  Level Estimated
Tue 02:04:00 PM 40.0187 37.8579 111° Southeast  Level Estimated
Tue 02:05:00 PM 39.9760 38.0021 111° Southeast  Level Estimated
Tue 02:06:00 PM 39.9332 38.1460 111° Southeast  Level Estimated
Tue 02:07:00 PM 39.8902 38.2898 111° Southeast  Level Estimated
Tue 02:08:00 PM 39.8470 38.4334 111° Southeast  Level Estimated
Tue 02:09:00 PM 39.8037 38.5768 111° Southeast  Level Estimated
Tue 02:10:00 PM 39.7602 38.7200 112° Southeast  Level Estimated
Tue 02:11:00 PM 39.7164 38.8631 112° Southeast  Level Estimated
Tue 02:12:00 PM 39.6726 39.0059 112° Southeast  Level Estimated
Tue 02:13:00 PM 39.6285 39.1486 112° Southeast  Level Estimated
Tue 02:14:00 PM 39.5843 39.2911 112° Southeast  Level Estimated
Tue 02:15:00 PM 39.5399 39.4334 112° Southeast  Level Estimated
Tue 02:16:00 PM 39.4953 39.5756 112° Southeast  Level Estimated
Tue 02:17:00 PM 39.4506 39.7175 112° Southeast  Level Estimated
Tue 02:18:00 PM 39.4057 39.8593 112° Southeast  Level Estimated
Tue 02:19:00 PM 39.3606 40.0009 112° Southeast  Level Estimated
Tue 02:20:00 PM 39.3153 40.1423 112° Southeast  Level Estimated
Tue 02:21:00 PM 39.2699 40.2835 113° Southeast  Level Estimated
Tue 02:22:00 PM 39.2243 40.4245 113° Southeast  Level Estimated
Tue 02:23:00 PM 39.1785 40.5654 113° Southeast  Level Estimated
Tue 02:24:00 PM 39.1326 40.7061 113° Southeast  Level Estimated
Tue 02:25:00 PM 39.0864 40.8465 113° Southeast  Level Estimated
Tue 02:26:00 PM 39.0402 40.9869 113° Southeast  Level Estimated
Tue 02:27:00 PM 38.9937 41.1270 113° Southeast  Level Estimated
Tue 02:28:00 PM 38.9471 41.2669 113° Southeast  Level Estimated
Tue 02:29:00 PM 38.9003 41.4067 113° Southeast  Level Estimated
Tue 02:30:00 PM 38.8534 41.5462 113° Southeast  Level Estimated
Tue 02:31:00 PM 38.8063 41.6856 113° Southeast  Level Estimated
Tue 02:32:00 PM 38.7590 41.8248 114° Southeast  Level Estimated
Tue 02:33:00 PM 38.7115 41.9638 114° Southeast  Level Estimated
Tue 02:34:00 PM 38.6639 42.1026 114° Southeast  Level Estimated
Tue 02:35:00 PM 38.6161 42.2413 114° Southeast  Level Estimated
Tue 02:36:00 PM 38.5682 42.3797 114° Southeast  Level Estimated
Tue 02:37:00 PM 38.5201 42.5180 114° Southeast  Level Estimated
Tue 02:38:00 PM 38.4719 42.6561 114° Southeast  Level Estimated
Tue 02:39:00 PM 38.4234 42.7940 114° Southeast  Level Estimated
Tue 02:40:00 PM 38.3748 42.9317 114° Southeast  Level Estimated
Tue 02:41:00 PM 38.3261 43.0692 114° Southeast  Level Estimated
Tue 02:42:00 PM 38.2772 43.2066 114° Southeast  Level Estimated
Tue 02:43:00 PM 38.2281 43.3438 114° Southeast  Level Estimated
Tue 02:44:00 PM 38.1789 43.4807 115° Southeast  Level Estimated
Tue 02:45:00 PM 38.1295 43.6175 115° Southeast  Level Estimated
Tue 02:46:00 PM 38.0800 43.7541 115° Southeast  Level Estimated
Tue 02:47:00 PM 38.0303 43.8906 115° Southeast  Level Estimated
Tue 02:48:00 PM 37.9804 44.0268 115° Southeast  Level Estimated
Tue 02:49:00 PM 37.9304 44.1628 115° Southeast  Level Estimated
Tue 02:50:00 PM 37.8802 44.2987 115° Southeast  Level Estimated
Tue 02:51:00 PM 37.8299 44.4344 115° Southeast  Level Estimated
Tue 02:52:00 PM 37.7794 44.5699 115° Southeast  Level Estimated
Tue 02:53:00 PM 37.7288 44.7052 115° Southeast  Level Estimated
Tue 02:54:00 PM 37.6780 44.8403 115° Southeast  Level Estimated
Tue 02:55:00 PM 37.6270 44.9753 115° Southeast  Level Estimated
Tue 02:56:00 PM 37.5759 45.1100 116° Southeast  Level Estimated
Tue 02:57:00 PM 37.5247 45.2446 116° Southeast  Level Estimated
Tue 02:58:00 PM 37.4733 45.3790 116° Southeast  Level Estimated
Tue 02:59:00 PM 37.4217 45.5132 116° Southeast  Level Estimated
Tue 03:00:00 PM 37.3700 45.6472 116° Southeast  Level Estimated
Tue 03:01:00 PM 37.3181 45.7810 116° Southeast  Level Estimated
Tue 03:02:00 PM 37.2661 45.9146 116° Southeast  Level Estimated
Tue 03:03:00 PM 37.2140 46.0481 116° Southeast  Level Estimated
Tue 03:04:00 PM 37.1617 46.1814 116° Southeast  Level Estimated
Tue 03:05:00 PM 37.1092 46.3145 116° Southeast  Level Estimated
Tue 03:06:00 PM 37.0566 46.4474 116° Southeast  Level Estimated
Tue 03:07:00 PM 37.0038 46.5801 116° Southeast  Level Estimated
Tue 03:07:10 PM 36.5410 48.8230 117° Southeast 509 586 35,000  Level FlightAware ADS-B
Tue 03:07:53 PM 36.4940 48.9180 122° Southeast 508 585 35,000  Level FlightAware ADS-B
Tue 03:08:00 PM 36.9509 46.7127 117° Southeast  Level Estimated
Tue 03:08:29 PM 36.4440 49.0170 122° Southeast 507 583 35,000  Level FlightAware ADS-B
Tue 03:09:17 PM 36.3950 49.1130 122° Southeast 508 585 35,000  Level FlightAware ADS-B
Tue 03:09:53 PM 36.3570 49.1890 122° Southeast 508 585 35,000  Level FlightAware ADS-B
Tue 03:11:24 PM 36.2610 49.3800 122° Southeast 508 585 35,000  Level FlightAware ADS-B
Tue 03:11:57 PM 36.2260 49.4490 122° Southeast 508 585 35,000  Level FlightAware ADS-B
Tue 03:12:45 PM 36.1230 49.6400 124° Southeast 505 581 35,000  Level FlightAware ADS-B
Tue 03:13:26 PM 36.0670 49.7470 123° Southeast 505 581 35,000  Level FlightAware ADS-B
Tue 03:14:04 PM 36.0250 49.8260 123° Southeast 505 581 35,000  Level FlightAware ADS-B
Tue 03:14:44 PM 35.9820 49.9090 123° Southeast 505 581 35,000  Level FlightAware ADS-B
Tue 03:15:50 PM 35.9100 50.0440 123° Southeast 505 581 35,000  Level FlightAware ADS-B
Tue 03:16:24 PM 35.8740 50.1140 122° Southeast 505 581 35,000  Level FlightAware ADS-B
Tue 03:17:01 PM 35.8340 50.1900 123° Southeast 505 581 35,000  Level FlightAware ADS-B
Tue 03:18:02 PM 35.7680 50.3160 123° Southeast 505 581 35,000  Level FlightAware ADS-B
Tue 03:18:38 PM 35.7290 50.3890 123° Southeast 505 581 35,000  Level FlightAware ADS-B
Tue 03:19:14 PM 35.6900 50.4630 123° Southeast 505 581 35,000  Level FlightAware ADS-B
Tue 03:19:50 PM 35.6510 50.5370 123° Southeast 505 581 35,000  Level FlightAware ADS-B
Tue 03:21:06 PM 35.5680 50.6930 123° Southeast 505 581 35,000  Level FlightAware ADS-B
Tue 03:21:42 PM 35.5300 50.7660 123° Southeast 505 581 35,000  Level FlightAware ADS-B
Tue 03:22:23 PM 35.3650 50.9870 132° Southeast 484 557 35,000  Level FlightAware ADS-B
Tue 03:23:03 PM 35.3060 51.0460 141° Southeast 484 557 35,000  Level FlightAware ADS-B
Tue 03:23:52 PM 35.2330 51.1180 141° Southeast 484 557 35,000  Level FlightAware ADS-B
Tue 03:24:28 PM 35.1800 51.1710 141° Southeast 484 557 35,000  Level FlightAware ADS-B
Tue 03:25:16 PM 35.1090 51.2410 141° Southeast 484 557 35,000  Level FlightAware ADS-B
Tue 03:26:06 PM 35.0350 51.3140 141° Southeast 484 557 35,000  Level FlightAware ADS-B
Tue 03:26:42 PM 34.9820 51.3670 141° Southeast 484 557 35,000  Level FlightAware ADS-B
Tue 03:27:30 PM 34.9110 51.4370 141° Southeast 484 557 35,000  Level FlightAware ADS-B
Tue 03:28:06 PM 34.8570 51.4900 141° Southeast 484 557 35,000  Level FlightAware ADS-B
Tue 03:28:43 PM 34.8030 51.5440 141° Southeast 484 557 35,000  Level FlightAware ADS-B
Tue 03:29:29 PM 34.7350 51.6110 141° Southeast 484 557 35,000  Level FlightAware ADS-B
Tue 03:30:05 PM 34.6810 51.6630 142° Southeast 484 557 35,000  Level FlightAware ADS-B
Tue 03:31:07 PM 34.5900 51.7530 141° Southeast 484 557 35,000  Level FlightAware ADS-B
Tue 03:31:43 PM 34.5360 51.8060 141° Southeast 484 557 35,000  Level FlightAware ADS-B
Tue 03:34:00 PM 34.4036 52.0918 119° Southeast  Level Estimated
Tue 03:35:00 PM 34.3454 52.2167 119° Southeast  Level Estimated
Tue 03:36:00 PM 34.2871 52.3414 119° Southeast  Level Estimated
Tue 03:37:00 PM 34.2287 52.4659 120° Southeast  Level Estimated
Tue 03:38:00 PM 34.1701 52.5903 120° Southeast  Level Estimated
Tue 03:39:00 PM 34.1114 52.7145 120° Southeast  Level Estimated
Tue 03:40:00 PM 34.0526 52.8385 120° Southeast  Level Estimated
Tue 03:41:00 PM 33.9937 52.9623 120° Southeast  Level Estimated
Tue 03:42:00 PM 33.9346 53.0860 120° Southeast  Level Estimated
Tue 03:43:00 PM 33.8754 53.2095 120° Southeast  Level Estimated
Tue 03:44:00 PM 33.8161 53.3328 120° Southeast  Level Estimated
Tue 03:45:00 PM 33.7567 53.4560 120° Southeast  Level Estimated
Tue 03:46:00 PM 33.6971 53.5790 120° Southeast  Level Estimated
Tue 03:47:00 PM 33.6375 53.7018 120° Southeast  Level Estimated
Tue 03:48:00 PM 33.5777 53.8245 120° Southeast  Level Estimated
Tue 03:49:00 PM 33.5177 53.9469 120° Southeast  Level Estimated
Tue 03:50:00 PM 33.4577 54.0692 120° Southeast  Level Estimated
Tue 03:51:00 PM 33.3975 54.1914 121° Southeast  Level Estimated
Tue 03:52:00 PM 33.3373 54.3134 121° Southeast  Level Estimated
Tue 03:53:00 PM 33.2769 54.4352 121° Southeast  Level Estimated
Tue 03:54:00 PM 33.2164 54.5568 121° Southeast  Level Estimated
Tue 03:55:00 PM 33.1557 54.6782 121° Southeast  Level Estimated
Tue 03:56:00 PM 33.0950 54.7995 121° Southeast  Level Estimated
Tue 03:57:00 PM 33.0341 54.9207 121° Southeast  Level Estimated
Tue 03:58:00 PM 32.9731 55.0416 121° Southeast  Level Estimated
Tue 03:59:00 PM 32.9120 55.1624 121° Southeast  Level Estimated
Tue 04:00:00 PM 32.8508 55.2830 121° Southeast  Level Estimated
Tue 04:01:00 PM 32.7895 55.4035 121° Southeast  Level Estimated
Tue 04:02:00 PM 32.7280 55.5238 121° Southeast  Level Estimated
Tue 04:03:00 PM 32.6665 55.6439 121° Southeast  Level Estimated
Tue 04:04:00 PM 32.6048 55.7639 121° Southeast  Level Estimated
Tue 04:05:00 PM 32.5430 55.8837 121° Southeast  Level Estimated
Tue 04:06:00 PM 32.4811 56.0033 122° Southeast  Level Estimated
Tue 04:07:00 PM 32.4191 56.1228 122° Southeast  Level Estimated
Tue 04:08:00 PM 32.3569 56.2421 122° Southeast  Level Estimated
Tue 04:09:00 PM 32.2947 56.3612 122° Southeast  Level Estimated
Tue 04:10:00 PM 32.2323 56.4802 122° Southeast  Level Estimated
Tue 04:11:00 PM 32.1699 56.5990 122° Southeast  Level Estimated
Tue 04:12:00 PM 32.1073 56.7177 122° Southeast  Level Estimated
Tue 04:13:00 PM 32.0446 56.8362 122° Southeast  Level Estimated
Tue 04:14:00 PM 31.9818 56.9545 122° Southeast  Level Estimated
Tue 04:15:00 PM 31.9189 57.0726 122° Southeast  Level Estimated
Tue 04:16:00 PM 31.8559 57.1906 122° Southeast  Level Estimated
Tue 04:17:00 PM 31.7928 57.3085 122° Southeast  Level Estimated
Tue 04:18:00 PM 31.7295 57.4262 122° Southeast  Level Estimated
Tue 04:19:00 PM 31.6662 57.5437 122° Southeast  Level Estimated
Tue 04:20:00 PM 31.6028 57.6610 122° Southeast  Level Estimated
Tue 04:21:00 PM 31.5392 57.7782 122° Southeast  Level Estimated
Tue 04:22:00 PM 31.4755 57.8953 123° Southeast  Level Estimated
Tue 04:23:00 PM 31.4118 58.0121 123° Southeast  Level Estimated
Tue 04:24:00 PM 31.3479 58.1289 123° Southeast  Level Estimated
Tue 04:25:00 PM 31.2839 58.2454 123° Southeast  Level Estimated
Tue 04:26:00 PM 31.2199 58.3618 123° Southeast  Level Estimated
Tue 04:27:00 PM 31.1557 58.4781 123° Southeast  Level Estimated
Tue 04:28:00 PM 31.0914 58.5942 123° Southeast  Level Estimated
Tue 04:29:00 PM 31.0270 58.7101 123° Southeast  Level Estimated
Tue 04:30:00 PM 30.9625 58.8259 123° Southeast  Level Estimated
Tue 04:31:00 PM 30.8979 58.9415 123° Southeast  Level Estimated
Tue 04:32:00 PM 30.8332 59.0569 123° Southeast  Level Estimated
Tue 04:33:00 PM 30.7684 59.1722 123° Southeast  Level Estimated
Tue 04:34:00 PM 30.7034 59.2874 123° Southeast  Level Estimated
Tue 04:35:00 PM 30.6384 59.4024 123° Southeast  Level Estimated
Tue 04:36:00 PM 30.5733 59.5172 123° Southeast  Level Estimated
Tue 04:37:00 PM 30.5081 59.6319 123° Southeast  Level Estimated
Tue 04:38:00 PM 30.4428 59.7464 123° Southeast  Level Estimated
Tue 04:39:00 PM 30.3774 59.8608 124° Southeast  Level Estimated
Tue 04:40:00 PM 30.3119 59.9751 124° Southeast  Level Estimated
Tue 04:41:00 PM 30.2463 60.0891 124° Southeast  Level Estimated
Tue 04:42:00 PM 30.1806 60.2030 124° Southeast  Level Estimated
Tue 04:43:00 PM 30.1147 60.3168 124° Southeast  Level Estimated
Tue 04:44:00 PM 30.0488 60.4304 124° Southeast  Level Estimated
Tue 04:45:00 PM 29.9828 60.5439 124° Southeast  Level Estimated
Tue 04:46:00 PM 29.9167 60.6572 124° Southeast  Level Estimated
Tue 04:47:00 PM 29.8505 60.7704 124° Southeast  Level Estimated
Tue 04:48:00 PM 29.7842 60.8834 124° Southeast  Level Estimated
Tue 04:49:00 PM 29.7178 60.9963 124° Southeast  Level Estimated
Tue 04:50:00 PM 29.6514 61.1090 124° Southeast  Level Estimated
Tue 04:51:00 PM 29.5848 61.2215 124° Southeast  Level Estimated
Tue 04:52:00 PM 29.5181 61.3340 124° Southeast  Level Estimated
Tue 04:53:00 PM 29.4513 61.4462 124° Southeast  Level Estimated
Tue 04:54:00 PM 29.3845 61.5583 124° Southeast  Level Estimated
Tue 04:55:00 PM 29.3175 61.6703 124° Southeast  Level Estimated
Tue 04:56:00 PM 29.2504 61.7822 124° Southeast  Level Estimated
Tue 04:57:00 PM 29.1833 61.8938 125° Southeast  Level Estimated
Tue 04:58:00 PM 29.1161 62.0054 125° Southeast  Level Estimated
Tue 04:59:00 PM 29.0487 62.1167 125° Southeast  Level Estimated
Tue 05:00:00 PM 28.9813 62.2280 125° Southeast  Level Estimated
Tue 05:01:00 PM 28.9138 62.3391 125° Southeast  Level Estimated
Tue 05:02:00 PM 28.8462 62.4500 125° Southeast  Level Estimated
Tue 05:03:00 PM 28.7785 62.5608 125° Southeast  Level Estimated
Tue 05:04:00 PM 28.7107 62.6715 125° Southeast  Level Estimated
Tue 05:05:00 PM 28.6428 62.7820 125° Southeast  Level Estimated
Tue 05:06:00 PM 28.5749 62.8924 125° Southeast  Level Estimated
Tue 05:07:00 PM 28.5068 63.0027 125° Southeast  Level Estimated
Tue 05:08:00 PM 28.4387 63.1128 125° Southeast  Level Estimated
Tue 05:09:00 PM 28.3704 63.2227 125° Southeast  Level Estimated
Tue 05:10:00 PM 28.3021 63.3325 125° Southeast  Level Estimated
Tue 05:11:00 PM 28.2337 63.4422 125° Southeast  Level Estimated
Tue 05:12:00 PM 28.1652 63.5517 125° Southeast  Level Estimated
Tue 05:13:00 PM 28.0966 63.6611 125° Southeast  Level Estimated
Tue 05:14:00 PM 28.0280 63.7704 125° Southeast  Level Estimated
Tue 05:15:00 PM 27.9592 63.8795 125° Southeast  Level Estimated
Tue 05:15:26 PM 26.2070 64.8320 126° Southeast 486 559 35,000  Level FlightAware ADS-B
Tue 05:16:00 PM 27.8904 63.9884 126° Southeast  Level Estimated
Tue 05:16:22 PM 26.0810 64.9480 140° Southeast 483 556 35,000  Level FlightAware ADS-B
Tue 05:17:00 PM 26.0150 65.0090 140° Southeast 481 554 35,000  Level FlightAware ADS-B
Tue 05:17:48 PM 25.9440 65.1000 131° Southeast 481 554 35,000  Level FlightAware ADS-B
Tue 05:18:30 PM 25.9000 65.1880 119° Southeast 480 552 35,000  Level FlightAware ADS-B
Tue 05:19:08 PM 25.8570 65.2750 119° Southeast 480 552 35,000  Level FlightAware ADS-B
Tue 05:19:52 PM 25.8100 65.3680 119° Southeast 479 551 35,000  Level FlightAware ADS-B
Tue 05:20:32 PM 25.7670 65.4540 119° Southeast 479 551 35,000  Level FlightAware ADS-B
Tue 05:21:14 PM 25.7220 65.5460 118° Southeast 479 551 35,000  Level FlightAware ADS-B
Tue 05:21:58 PM 25.6750 65.6380 120° Southeast 478 550 35,000  Level FlightAware ADS-B
Tue 05:22:40 PM 25.6280 65.7300 120° Southeast 478 550 35,000  Level FlightAware ADS-B
Tue 05:23:22 PM 25.5820 65.8190 120° Southeast 476 548 35,000  Level FlightAware ADS-B
Tue 05:24:06 PM 25.5340 65.9120 120° Southeast 477 549 35,000  Level FlightAware ADS-B
Tue 05:24:44 PM 25.4920 65.9930 120° Southeast 476 548 35,000  Level FlightAware ADS-B
Tue 05:25:30 PM 25.4430 66.0890 119° Southeast 476 548 35,000  Level FlightAware ADS-B
Tue 05:26:10 PM 25.4000 66.1730 120° Southeast 477 549 35,000  Level FlightAware ADS-B
Tue 05:26:54 PM 25.3510 66.2670 120° Southeast 477 549 35,000  Level FlightAware ADS-B
Tue 05:27:34 PM 25.3080 66.3520 119° Southeast 477 549 35,000  Level FlightAware ADS-B
Tue 05:28:14 PM 25.2650 66.4370 119° Southeast 476 548 35,000  Level FlightAware ADS-B
Tue 05:28:56 PM 25.2180 66.5280 120° Southeast 476 548 35,000  Level FlightAware ADS-B
Tue 05:29:40 PM 25.1700 66.6190 120° Southeast 476 548 35,000  Level FlightAware ADS-B
Tue 05:30:23 PM 25.1270 66.7120 117° Southeast 476 548 35,000  Level FlightAware ADS-B
Tue 05:31:02 PM 25.0870 66.7960 118° Southeast 476 548 35,000  Level FlightAware ADS-B
Tue 05:31:48 PM 25.0400 66.8950 118° Southeast 477 549 35,000  Level FlightAware ADS-B
Tue 05:32:29 PM 24.9980 66.9830 118° Southeast 476 548 35,000  Level FlightAware ADS-B
Tue 05:33:04 PM 24.9610 67.0590 118° Southeast 477 549 35,000  Level FlightAware ADS-B
Tue 05:33:52 PM 24.9110 67.1640 118° Southeast 476 548 35,000  Level FlightAware ADS-B
Tue 05:34:34 PM 24.8680 67.2520 118° Southeast 477 549 35,000  Level FlightAware ADS-B
Tue 05:35:12 PM 24.8290 67.3340 118° Southeast 476 548 35,000  Level FlightAware ADS-B
Tue 05:35:56 PM 24.7850 67.4280 117° Southeast 476 548 35,000  Level FlightAware ADS-B
Tue 05:36:40 PM 24.7400 67.5230 118° Southeast 476 548 35,000  Level FlightAware ADS-B
Tue 05:37:20 PM 24.6990 67.6090 118° Southeast 476 548 35,000  Level FlightAware ADS-B
Tue 05:38:06 PM 24.6510 67.7050 119° Southeast 476 548 35,000  Level FlightAware ADS-B
Tue 05:38:42 PM 24.6120 67.7830 119° Southeast 477 549 35,000  Level FlightAware ADS-B
Tue 05:39:26 PM 24.5640 67.8770 119° Southeast 477 549 35,000  Level FlightAware ADS-B
Tue 05:40:12 PM 24.5150 67.9770 118° Southeast 478 550 35,000  Level FlightAware ADS-B
Tue 05:40:54 PM 24.4720 68.0650 118° Southeast 478 550 35,000  Level FlightAware ADS-B
Tue 05:41:34 PM 24.4290 68.1500 119° Southeast 478 550 35,000  Level FlightAware ADS-B
Tue 05:42:15 PM 24.3860 68.2350 119° Southeast 478 550 35,000  Level FlightAware ADS-B
Tue 05:42:59 PM 24.3380 68.3330 118° Southeast 477 549 35,000  Level FlightAware ADS-B
Tue 05:43:39 PM 24.2960 68.4160 119° Southeast 478 550 35,000  Level FlightAware ADS-B
Tue 05:44:23 PM 24.2490 68.5090 119° Southeast 477 549 35,000  Level FlightAware ADS-B
Tue 05:45:03 PM 24.2060 68.5940 119° Southeast 477 549 35,000  Level FlightAware ADS-B
Tue 05:45:49 PM 24.1560 68.6910 119° Southeast 476 548 35,000  Level FlightAware ADS-B
Tue 05:46:27 PM 24.1200 68.7710 116° Southeast 477 549 35,000  Level FlightAware ADS-B
Tue 05:47:09 PM 24.0900 68.8720 108° East 477 549 35,000  Level FlightAware ADS-B
Tue 05:47:47 PM 24.0670 68.9580 106° East 478 550 35,000  Level FlightAware ADS-B
Tue 05:48:37 PM 24.0360 69.0750 106° East 478 550 35,000  Level FlightAware ADS-B
Tue 05:49:15 PM 24.0120 69.1630 107° East 478 550 35,000  Level FlightAware ADS-B
Tue 05:50:01 PM 23.9840 69.2700 106° East 477 549 35,000  Level FlightAware ADS-B
Tue 05:51:48 PM 23.9660 69.3340 107° East 477 549 35,000  Level FlightAware ADS-B
Tue 05:52:29 PM 23.8920 69.6110 106° East 475 547 35,000  Level FlightAware ADS-B
Tue 05:53:25 PM 23.8570 69.7400 106° East 475 547 35,000  Level FlightAware ADS-B
Tue 05:54:03 PM 23.8330 69.8280 107° East 475 547 35,000  Level FlightAware ADS-B
Tue 05:54:49 PM 23.8040 69.9340 107° East 475 547 35,000  Level FlightAware ADS-B
Tue 05:55:29 PM 23.7790 70.0280 106° East 475 547 35,000  Level FlightAware ADS-B
Tue 05:56:13 PM 23.7510 70.1270 107° East 475 547 35,000  Level FlightAware ADS-B
Tue 05:56:57 PM 23.7250 70.2280 106° East 474 545 35,000  Level FlightAware ADS-B
Tue 05:57:51 PM 23.6940 70.3530 105° East 475 547 35,000  Level FlightAware ADS-B
Tue 05:58:39 PM 23.6720 70.4440 105° East 476 548 35,000  Level FlightAware ADS-B
Tue 05:59:40 PM 23.6330 70.5950 106° East 476 548 35,000  Level FlightAware ADS-B
Tue 06:00:41 PM 23.6030 70.7150 105° East 476 548 35,000  Level FlightAware ADS-B
Tue 06:01:14 PM 23.5870 70.7810 105° East 476 548 35,000  Level FlightAware ADS-B
Tue 06:02:02 PM 23.5640 70.8750 105° East 476 548 35,000  Level FlightAware ADS-B
Tue 06:02:39 PM 23.5460 70.9480 105° East 476 548 35,000  Level FlightAware ADS-B
Tue 06:03:27 PM 23.5230 71.0430 105° East 476 548 35,000  Level FlightAware ADS-B
Tue 06:04:03 PM 23.5050 71.1140 105° East 476 548 35,000  Level FlightAware ADS-B
Tue 06:04:52 PM 23.4820 71.2100 105° East 476 548 35,000  Level FlightAware ADS-B
Tue 06:06:02 PM 23.4480 71.3480 105° East 476 548 35,000  Level FlightAware ADS-B
Tue 06:06:38 PM 23.4300 71.4190 105° East 476 548 35,000  Level FlightAware ADS-B
Tue 06:07:18 PM 23.4110 71.4980 105° East 476 548 35,000  Level FlightAware ADS-B
Tue 06:08:06 PM 23.3880 71.5930 105° East 476 548 35,000  Level FlightAware ADS-B
Tue 06:08:52 PM 23.3650 71.6830 106° East 476 548 35,000  Level FlightAware ADS-B
Tue 06:11:00 PM 23.1934 71.8846 133° Southeast  Level Estimated
Tue 06:12:00 PM 23.1129 71.9790 133° Southeast  Level Estimated
Tue 06:13:00 PM 23.0323 72.0732 133° Southeast  Level Estimated
Tue 06:14:00 PM 22.9516 72.1673 133° Southeast  Level Estimated
Tue 06:14:05 PM 22.2160 71.8850 133° Southeast 472 543 35,000  Level FlightAware ADS-B
Tue 06:15:26 PM 22.1020 71.9610 148° Southeast 472 543 35,000  Level FlightAware ADS-B
Tue 06:16:15 PM 22.0250 72.0130 148° Southeast 472 543 35,000  Level FlightAware ADS-B
Tue 06:16:55 PM 21.9620 72.0550 148° Southeast 472 543 35,000  Level FlightAware ADS-B
Tue 06:17:32 PM 21.9040 72.0940 148° Southeast 472 543 35,000  Level FlightAware ADS-B
Tue 06:18:19 PM 21.8300 72.1440 148° Southeast 472 543 35,000  Level FlightAware ADS-B
Tue 06:18:56 PM 21.7720 72.1830 148° Southeast 472 543 35,000  Level FlightAware ADS-B
Tue 06:19:44 PM 21.6960 72.2340 148° Southeast 472 543 35,000  Level FlightAware ADS-B
Tue 06:19:58 PM 21.5320 72.2490 175° South 467 537 35,000  Level FlightAware ADS-B
Tue 06:20:40 PM 21.4450 72.2720 166° South 466 536 35,000  Level FlightAware ADS-B
Tue 06:21:18 PM 21.3640 72.2920 167° South 467 537 35,000  Level FlightAware ADS-B
Tue 06:22:20 PM 21.2440 72.3240 166° South 465 535 35,000  Level FlightAware ADS-B
Tue 06:23:00 PM 21.1520 72.3470 167° South 464 534 35,000  Level FlightAware ADS-B
Tue 06:23:41 PM 21.0670 72.3690 166° South 462 532 35,000  Level FlightAware ADS-B
Tue 06:24:22 PM 20.9850 72.4070 157° South 461 531 35,000  Level FlightAware ADS-B
Tue 06:25:05 PM 20.9090 72.4580 148° Southeast 463 533 35,000  Level FlightAware ADS-B
Tue 06:25:48 PM 20.8280 72.5070 151° Southeast 466 536 35,000  Level FlightAware ADS-B
Tue 06:26:30 PM 20.7470 72.5540 152° Southeast 468 539 35,000  Level FlightAware ADS-B
Tue 06:27:12 PM 20.6690 72.6040 149° Southeast 469 540 35,000  Level FlightAware ADS-B
Tue 06:27:54 PM 20.5900 72.6540 149° Southeast 469 540 35,000  Level FlightAware ADS-B
Tue 06:28:34 PM 20.5150 72.7010 150° Southeast 469 540 35,000  Level FlightAware ADS-B
Tue 06:29:18 PM 20.4320 72.7540 149° Southeast 469 540 35,000  Level FlightAware ADS-B
Tue 06:30:00 PM 20.3540 72.8030 150° Southeast 470 541 35,000  Level FlightAware ADS-B
Tue 06:30:42 PM 20.2740 72.8550 149° Southeast 472 543 35,000  Level FlightAware ADS-B
Tue 06:31:20 PM 20.2030 72.8990 150° Southeast 475 547 35,000  Level FlightAware ADS-B
Tue 06:32:06 PM 20.1160 72.9540 149° Southeast 477 549 35,000  Level FlightAware ADS-B
Tue 06:32:47 PM 20.0380 73.0030 149° Southeast 479 551 35,000  Level FlightAware ADS-B
Tue 06:33:24 PM 19.9670 73.0480 149° Southeast 480 552 35,000  Level FlightAware ADS-B
Tue 06:34:12 PM 19.8750 73.1060 149° Southeast 482 555 35,000  Level FlightAware ADS-B
Tue 06:34:49 PM 19.8050 73.1510 149° Southeast 483 556 35,000  Level FlightAware ADS-B
Tue 06:35:34 PM 19.7170 73.2060 150° Southeast 483 556 35,000  Level FlightAware ADS-B
Tue 06:36:14 PM 19.6380 73.2550 150° Southeast 484 557 35,000  Level FlightAware ADS-B
Tue 06:36:58 PM 19.5550 73.3080 149° Southeast 484 557 35,000  Level FlightAware ADS-B
Tue 06:37:40 PM 19.4720 73.3600 149° Southeast 483 556 35,000  Level FlightAware ADS-B
Tue 06:38:22 PM 19.3920 73.4090 150° Southeast 482 555 35,000  Level FlightAware ADS-B
Tue 06:39:06 PM 19.3080 73.4620 149° Southeast 470 541 35,000  Level FlightAware ADS-B
Tue 06:39:48 PM 19.2300 73.5110 149° Southeast 464 534 35,000  Level FlightAware ADS-B
Tue 06:41:13 PM 19.1550 73.5580 149° Southeast 461 531 35,000  Level FlightAware ADS-B
Tue 06:41:54 PM 19.0240 73.6410 149° Southeast 461 531 35,000  Level FlightAware ADS-B
Tue 06:42:30 PM 18.9680 73.6760 149° Southeast 461 531 35,000  Level FlightAware ADS-B
Tue 06:43:18 PM 18.8930 73.7240 149° Southeast 461 531 35,000  Level FlightAware ADS-B
Tue 06:43:54 PM 18.8370 73.7590 149° Southeast 461 531 35,000  Level FlightAware ADS-B
Tue 06:44:42 PM 18.7630 73.8060 149° Southeast 461 531 35,000  Level FlightAware ADS-B
Tue 06:45:18 PM 18.7070 73.8420 149° Southeast 461 531 35,000  Level FlightAware ADS-B
Tue 06:45:57 PM 18.6460 73.8800 149° Southeast 461 531 35,000  Level FlightAware ADS-B
Tue 06:46:43 PM 18.5750 73.9260 148° Southeast 461 531 35,000  Level FlightAware ADS-B
Tue 06:47:46 PM 18.4770 73.9880 149° Southeast 461 531 35,000  Level FlightAware ADS-B
Tue 06:48:22 PM 18.4210 74.0230 149° Southeast 461 531 35,000  Level FlightAware ADS-B
Tue 06:48:59 PM 18.3630 74.0590 149° Southeast 461 531 35,000  Level FlightAware ADS-B
Tue 06:49:47 PM 18.2890 74.1070 148° Southeast 461 531 35,000  Level FlightAware ADS-B
Tue 06:51:00 PM 18.1750 74.1780 149° Southeast 461 531 35,000  Level FlightAware ADS-B
Tue 06:53:00 PM 18.1250 74.4215 102° East  Level Estimated
Tue 06:54:00 PM 18.0999 74.5432 102° East  Level Estimated
Tue 06:55:00 PM 18.0747 74.6649 102° East  Level Estimated
Tue 06:56:00 PM 18.0494 74.7865 102° East  Level Estimated
Tue 06:57:00 PM 18.0241 74.9081 102° East  Level Estimated
Tue 06:58:00 PM 17.9987 75.0296 102° East  Level Estimated
Tue 06:59:00 PM 17.9732 75.1512 102° East  Level Estimated
Tue 07:00:00 PM 17.9476 75.2727 102° East  Level Estimated
Tue 07:01:00 PM 17.9220 75.3941 102° East  Level Estimated
Tue 07:02:00 PM 17.8963 75.5155 103° East  Level Estimated
Tue 07:03:00 PM 17.8705 75.6369 103° East  Level Estimated
Tue 07:04:00 PM 17.8446 75.7582 103° East  Level Estimated
Tue 07:05:00 PM 17.8187 75.8796 103° East  Level Estimated
Tue 07:06:00 PM 17.7927 76.0008 103° East  Level Estimated
Tue 07:07:00 PM 17.7666 76.1221 103° East  Level Estimated
Tue 07:08:00 PM 17.7404 76.2433 103° East  Level Estimated
Tue 07:09:00 PM 17.7141 76.3644 103° East  Level Estimated
Tue 07:09:38 PM 17.4810 76.8050 103° East 446 513 35,000  Level FlightAware ADS-B
Tue 07:10:13 PM 17.4660 76.8770 102° East 446 513 34,800 -1,421 Descending FlightAware ADS-B
Tue 07:11:32 PM 17.4320 77.0320 103° East 449 517 32,300 -2,182 Descending FlightAware ADS-B
Tue 07:12:14 PM 17.4110 77.1340 102° East 445 512 30,400 -2,440 Descending FlightAware ADS-B
Tue 07:13:03 PM 17.3890 77.2340 103° East 441 507 28,600 -2,372 Descending FlightAware ADS-B
Tue 07:13:40 PM 17.3710 77.3150 103° East 437 503 27,000 -2,475 Descending FlightAware ADS-B
Tue 07:14:23 PM 17.3520 77.4030 103° East 430 495 25,300 -2,372 Descending FlightAware ADS-B
Tue 07:15:06 PM 17.3330 77.4880 103° East 424 488 23,600 -2,429 Descending FlightAware ADS-B
Tue 07:15:47 PM 17.3160 77.5670 103° East 417 480 21,900 -2,429 Descending FlightAware ADS-B
Tue 07:16:30 PM 17.2970 77.6530 103° East 411 473 20,200 -2,329 Descending FlightAware ADS-B
Tue 07:17:12 PM 17.2780 77.7350 104° East 403 464 18,600 -2,169 Descending FlightAware ADS-B
Tue 07:17:53 PM 17.2610 77.8130 103° East 395 455 17,200 -2,049 Descending FlightAware ADS-B
Tue 07:18:34 PM 17.2450 77.8870 103° East 388 447 15,800 -1,977 Descending FlightAware ADS-B
Tue 07:19:21 PM 17.2260 77.9720 103° East 377 434 14,300 -1,835 Descending FlightAware ADS-B
Tue 07:19:59 PM 17.2120 78.0380 103° East 366 421 13,200 -1,875 Descending FlightAware ADS-B
Tue 07:20:41 PM 17.1950 78.1100 104° East 362 417 11,800 -1,880 Descending FlightAware ADS-B
Tue 07:21:22 PM 17.1780 78.1810 104° East 354 407 10,600 -1,286 Descending FlightAware ADS-B
Tue 07:22:05 PM 17.1610 78.2460 105° East 330 380 10,000 -811 Descending FlightAware ADS-B
Tue 07:22:36 PM 17.1490 78.2930 105° East 311 358 9,600 -698 Descending FlightAware ADS-B
Tue 07:22:48 PM 17.1440 78.3130 105° East 304 350 9,500 -486 Descending FlightAware ADS-B
Tue 07:23:13 PM 17.1410 78.3480 95° East 297 342 9,300 -655 Descending FlightAware ADS-B
Tue 07:23:43 PM 17.1420 78.3900 89° East 286 329 8,900 -984 Descending FlightAware ADS-B
Tue 07:24:14 PM 17.1430 78.4320 89° East 279 321 8,300 -1,000 Descending FlightAware ADS-B
Tue 07:24:37 PM 17.1430 78.4630 90° East 270 311 8,000 -750 Descending FlightAware ADS-B
Tue 07:25:50 PM 17.1450 78.5520 89° East 239 275 7,100 -720 Descending FlightAware ADS-B
Tue 07:26:17 PM 17.1460 78.5840 88° East 219 252 6,800 -947 Descending FlightAware ADS-B
Tue 07:26:47 PM 17.1490 78.6150 84° East 214 246 6,200 -1,277 Descending FlightAware ADS-B
Tue 07:27:04 PM 17.1610 78.6270 44° Northeast 199 229 5,800 -1,448 Descending FlightAware ADS-B
Tue 07:27:16 PM 17.1710 78.6290 11° North 192 221 5,500 -1,019 Descending FlightAware ADS-B
Tue 07:27:57 PM 17.2090 78.6290 360° North 181 208 4,900 -792 Descending FlightAware ADS-B
Tue 07:28:09 PM 17.2150 78.6240 321° Northwest 171 197 4,800 -500 Descending FlightAware ADS-B
Tue 07:28:21 PM 17.2200 78.6140 298° West 169 194 4,700 -439 Descending FlightAware ADS-B
Tue 07:28:50 PM 17.2310 78.5940 300° West 169 194 4,500 -383 Descending FlightAware ADS-B
Tue 07:29:08 PM 17.2310 78.5790 270° West 164 189 4,400 -387 Descending FlightAware ADS-B
Tue 07:29:21 PM 17.2300 78.5700 263° West 164 189 4,300 -686 Descending FlightAware ADS-B
Tue 07:29:43 PM 17.2300 78.5510 270° West 157 181 4,000 -792 Descending FlightAware ADS-B
Tue 07:30:14 PM 17.2300 78.5300 270° West 141 162 3,600 -738 Descending FlightAware ADS-B
Tue 07:30:48 PM 17.2300 78.5070 270° West 126 145 3,200 -621 Descending FlightAware ADS-B
Tue 07:31:12 PM 17.2300 78.4930 270° West 121 139 3,000 -667 Descending FlightAware ADS-B
Tue 07:31:42 PM 17.2290 78.4730 267° West 130 150 2,600 -618 Descending FlightAware ADS-B
Tue 07:32:20 PM 17.2290 78.4500 270° West 137 158 2,300 -474 Descending FlightAware ADS-B
Tue 07:32:35 PM 17.2290 78.4470 270° West 137 158 -9,200 Descending FlightAware ADS-B
Tue 07:33:03 PM 17.2280 78.4630 94° East 137 158  Level FlightAware ADS-B
Tue 07:35:00 PM 17.2540 78.4310 310° West  Level Estimated
Tue 07:36:00 PM 17.2540 78.4310 North  Level Estimated
Tue 07:37:00 PM 17.2540 78.4310 North  Level Estimated
Tue 07:38:00 PM 17.2540 78.4310 North  Level Estimated
Tue 07:39:00 PM 17.2540 78.4310 North  Level Estimated
Tue 07:40:00 PM 17.2540 78.4310 North  Level Estimated
Tue 07:41:00 PM 17.2540 78.4310 North  Level Estimated
Tue 07:42:00 PM 17.2540 78.4310 North  Level Estimated

Login

Don't have an account? Register now (free) for customized features, flight alerts, and more!